Main page
METAR-TAF:

METAR-TAF

Airports :

Djibouti, Djibouti

Djibouti–Ambouli International Airport

latitude: 11-33N, longitude: 043-10E, elevation: 49 m

Current weather observation

The report was made 1 hour and 5 minutes ago, at 05:00 UTC
Temperature 31°C
Humidity 71%
Pressure 1012 hPa
Visibility 10 km or more
Few clouds at a height of 2300 ft

METAR: HDAM 240500Z CALME 9999 FEW023 31/25 Q1012

Time: 09:05 (06:05 UTC)

Forecast

The report was made 7 hours and 5 minutes ago, at 23:00 UTC
Forecast valid from 24 at 00 UTC to 24 at 24 UTC
Wind 3 kt from variable directions
Few clouds at a height of 2000 ft
Becoming
from 24 at 03 UTC to 24 at 06 UTC
Wind 10 kt from the East
Few clouds at a height of 2300 ft
Becoming
from 24 at 06 UTC to 24 at 12 UTC
Wind 10 kt from the East
Few clouds at a height of 2300 ft

TAF: HDAM 232300Z 2400/2424 VRB03KT 9/9 FEW020 BECMG 2403/2406 08010KT FEW023 BECMG 2406/2412 10010KT FEW023

Weather observations and forecasts of more than 4000 airports (METAR and TAF reports).

The available stations are represented by yellow and red dots on the map.

Hover mouse over dot to see the name of the station.

Then click to see weather observations and forecasts.

To change the map : click on the green buttons with a black cross to zoom in, on the green button with a dash to zoom out, or on the green arrows for adjacent maps.


METAR-TAF: